Address 0x4564469f805e50539b99e3210602f35c608929e8

 
 
Txn Hash Method
Block
From
To
Value [Txn Fee]
0xe33221f0fe77874c33d5919e5fa954dbd511995ae73d33db24ac11b31fc5960b0x0d6f24af285993872022-05-21 18:47:518 hrs 49 mins ago0x4564469f805e50539b99e3210602f35c608929e8OUT 0xd814b26554204245a30f8a42c289af582421bf040 MATIC0.008012936 47
0xe23a5f31450a5733715c9884c93dd5592b891b9c360d064b2cbba37195f7934bHarvest All285993802022-05-21 18:47:238 hrs 49 mins ago0x4564469f805e50539b99e3210602f35c608929e8OUT 0xd814b26554204245a30f8a42c289af582421bf040 MATIC0.007435823 47
0x04047cef3a7445bd2d1317bd30f151bab6a6ec1de786f21974e680b866a275a40x0d6f24af285496522022-05-20 13:20:101 day 14 hrs ago0x4564469f805e50539b99e3210602f35c608929e8OUT 0xd814b26554204245a30f8a42c289af582421bf040 MATIC0.00767106 45
0x423c49b96209efb3441115bc86cdf79ed7cbb16a4267c2e30df42c4bdca5a049Harvest All285496462022-05-20 13:19:461 day 14 hrs ago0x4564469f805e50539b99e3210602f35c608929e8OUT 0xd814b26554204245a30f8a42c289af582421bf040 MATIC0.007119405 45
0x3bba6b31b173916c20dc584ef7e1043e4e48e2704d4e1b61084bed9cf492d9080x0d6f24af285340472022-05-20 3:55:001 day 23 hrs ago0x4564469f805e50539b99e3210602f35c608929e8OUT 0xd814b26554204245a30f8a42c289af582421bf040 MATIC0.008865376 52
0x327f91e97b7b6f98d417423c57d60edda12a7b4afe881bbd58eccb5867984263Deposit285340372022-05-20 3:54:401 day 23 hrs ago0x4564469f805e50539b99e3210602f35c608929e8OUT 0xd814b26554204245a30f8a42c289af582421bf040 MATIC0.006639724 52
0xb4e7a755db37e0c4e86ec7c2d5fa43c403606e8f9b67901741c0d3b12fb0f915Approve285340322022-05-20 3:54:301 day 23 hrs ago0x4564469f805e50539b99e3210602f35c608929e8OUT 0xde990994309bc08e57aca82b1a19170ad84323e80 MATIC0.001419616686 30.766258222
0xfcbbf83ae94015f099924ff0b7d717c47b52ddac4ffc5998bd309ecadc03bec3Add Liquidity285340182022-05-20 3:54:021 day 23 hrs ago0x4564469f805e50539b99e3210602f35c608929e8OUT SushiSwap: Router0 MATIC0.005800387892 30.777819656
0x7e750247324a319b17da6a60c10abb9bf947ffe9dd5ff363e8a9bfefccc0fb39Harvest All285339862022-05-20 3:52:541 day 23 hrs ago0x4564469f805e50539b99e3210602f35c608929e8OUT 0xd814b26554204245a30f8a42c289af582421bf040 MATIC0.009116068 52
0x4d428bb80aaa3da0de3143fe91a5d9399482a094deabcb1fc29b578cba8b5040Deposit285083652022-05-19 12:47:302 days 14 hrs ago0x4564469f805e50539b99e3210602f35c608929e8OUT 0xd814b26554204245a30f8a42c289af582421bf040 MATIC0.009958284 86
0xb674a5b2da93848d659cbe7c4ce7dde167fed7ee1b5324fe2ea9a219063d06a5Approve285083592022-05-19 12:47:182 days 14 hrs ago0x4564469f805e50539b99e3210602f35c608929e8OUT 0xde990994309bc08e57aca82b1a19170ad84323e80 MATIC0.002648080309 57.374882117
0x2393e0a72c1e293805aa455701e6f58ec654f881b3f03cd593596451f2a61815Add Liquidity285083312022-05-19 12:46:182 days 14 hrs ago0x4564469f805e50539b99e3210602f35c608929e8OUT SushiSwap: Router0 MATIC0.013229490617 68.191141603
0x839131fa6db70b9ded70fc1be7b0950ee7c1acb9d7637b70ffc5e09e79fa347fSwap Exact Token...285083002022-05-19 12:45:162 days 14 hrs ago0x4564469f805e50539b99e3210602f35c608929e8OUT SushiSwap: Router0 MATIC0.005938290271 46.461496045
0xe6d508972a54996c2b42f60fc770136e06e71c9353fabbbf9a4598aa24a7d61cWithdraw285082082022-05-19 12:42:042 days 14 hrs ago0x4564469f805e50539b99e3210602f35c608929e8OUT 0xd814b26554204245a30f8a42c289af582421bf040 MATIC0.011605614 86
0x41ba5457cf0de127167f4f148fd905e8ab232d985af4b2ccdc36cd24dc0a2748Harvest All285081982022-05-19 12:41:442 days 14 hrs ago0x4564469f805e50539b99e3210602f35c608929e8OUT 0xd814b26554204245a30f8a42c289af582421bf040 MATIC0.015526354 86
0x28e10cf1a271739fe0c106811d6d398899212ed138cb4b53316ddc5e3f4f563fDeposit283716882022-05-16 2:28:156 days 1 hr ago0x4564469f805e50539b99e3210602f35c608929e8OUT 0xd814b26554204245a30f8a42c289af582421bf040 MATIC0.006237186 46
0xf6ce03af5c91b7f9194bc7d6e704b7ce723d030001a33b42b0dd0220c4aa13fdApprove283716832022-05-16 2:28:056 days 1 hr ago0x4564469f805e50539b99e3210602f35c608929e8OUT USD Coin0 MATIC0.001804670663 31.049700002
0x52df3cd98d940b6ea484f22dd2e2ffa1cb5487e0aae54ff44cf79068ca312fa9Swap Exact Token...283716632022-05-16 2:27:256 days 1 hr ago0x4564469f805e50539b99e3210602f35c608929e8OUT SushiSwap: Router0 MATIC0.00374382752 31.040000003
0xb9aed6f7b20b956341c14758d2bf332c67827303b08b18e777cd38e955207ce3Remove Liquidity...283715552022-05-16 2:23:356 days 1 hr ago0x4564469f805e50539b99e3210602f35c608929e8OUT SushiSwap: Router0 MATIC0.00563978811 30.618074631
0xd1dacae6fc472cf31adc4c896486ac7d35c9d4ba70e608813134414208dba80bWithdraw283715142022-05-16 2:22:096 days 1 hr ago0x4564469f805e50539b99e3210602f35c608929e8OUT 0xd814b26554204245a30f8a42c289af582421bf040 MATIC0.00640665 46
0x0e7522a88ef451d45bfaa263c3c266e39245f296d49516088994acf841cbed7cWithdraw283715032022-05-16 2:21:476 days 1 hr ago0x4564469f805e50539b99e3210602f35c608929e8OUT 0xd814b26554204245a30f8a42c289af582421bf040 MATIC0.005717892 46
0x530ac6f357fae21b03d3c2bef49479eda811030ac006b940591b48d0599197810x0d6f24af283713072022-05-16 2:15:036 days 1 hr ago0x4564469f805e50539b99e3210602f35c608929e8OUT 0xd814b26554204245a30f8a42c289af582421bf040 MATIC0.007841528 46
0x595e0e1bd9d3c221399eb9cacacdda19c40e132af42e2c93d8f1ed5c45c3c1b1Harvest All283712982022-05-16 2:14:456 days 1 hr ago0x4564469f805e50539b99e3210602f35c608929e8OUT 0xd814b26554204245a30f8a42c289af582421bf040 MATIC0.007277614 46
0xfc9ffb843ba0863e10f752c8d680984759cf4f327fb43ba8bc4423f57b6a07a9Swap Exact Token...283650592022-05-15 22:39:596 days 4 hrs ago0x4564469f805e50539b99e3210602f35c608929e8OUT SushiSwap: Router0 MATIC0.004559322041 35.890000015
0x9b6627ec5f262d20f2c88315ef6f14a7e9bb1b3de2c9ff52e36fa14cb12e991cDeposit283650282022-05-15 22:38:536 days 4 hrs ago0x4564469f805e50539b99e3210602f35c608929e8OUT 0xd814b26554204245a30f8a42c289af582421bf040 MATIC0.006512037 51
[ Download CSV Export 
Latest 2 internal transactions
Parent Txn Hash Block From To Value
0xfc9ffb843ba0863e10f752c8d680984759cf4f327fb43ba8bc4423f57b6a07a9283650592022-05-15 22:39:596 days 4 hrs ago SushiSwap: Router0x4564469f805e50539b99e3210602f35c608929e82.156740083014603367 MATIC
0x5deec75c28a7c12448b52fee120efde51d2f02838547e61ee1d3435c304b857d276165912022-04-27 0:17:2425 days 3 hrs ago SushiSwap: Router0x4564469f805e50539b99e3210602f35c608929e82.256531752466746113 MATIC
[ Download CSV Export 
Loading

Contract Name:
0 MATIC

Compiler Version
0

Optimization Enabled:
0 MATIC

Other Settings:
-NA-
Block Transaction Gas Used Reward
Age Block Fee Address BC Fee Address Voting Power Jailed Incoming
Block Uncle Number Difficulty Gas Used Reward
Loading
Loading
Make sure to use the "Vote Down" button for any spammy posts, and the "Vote Up" for interesting conversations.